Latest Weather Observations for Strahan

IDT60801

Issued at 4:31 pm EST Tuesday 25 April 2017 (issued every 30 minutes, with the page automatically refreshed every 10 minutes)

About weather observations | Map of weather stations | Latest weather observations for TAS | Other Formats
Station Details ID: 097072 Name: STRAHAN AERODROME Lat: -42.16 Lon: 145.29 Height: 21.0 m
Data from the previous 72 hours. | See also: Recent months at Strahan
Date/Time
EST
Temp
°C
App
Temp
°C
Dew
Point
°C
Rel
Hum
%
Delta-T
°C
Wind Press
QNH
hPa
Press
MSL
hPa
Rain since
9am
mm
Dir  Spd
km/h
Gust
km/h
Spd
kts
Gust
kts
25/04:30pm 13.5 9.6 9.4 76 2.1 NW 20 30 11 16 1001.5 1001.5 0.0
25/04:00pm 14.8 10.1 9.4 70 2.8 NW 24 33 13 18 1001.6 1001.6 0.0
25/03:30pm 15.6 11.6 10.4 71 2.7 NW 22 32 12 17 1001.7 1001.7 0.0
25/03:00pm 14.4 10.7 10.0 75 2.3 NW 20 26 11 14 1001.9 1001.9 0.0
25/02:30pm 14.5 10.8 10.3 76 2.2 NW 20 28 11 15 1002.3 1002.3 0.0
25/02:00pm 14.9 11.2 10.3 74 2.4 NW 20 26 11 14 1002.6 1002.6 0.0
25/01:30pm 13.9 10.8 10.3 79 1.9 NW 17 20 9 11 1003.1 1003.1 0.0
25/01:00pm 16.5 13.6 11.0 70 3.0 NW 17 24 9 13 1003.7 1003.7 0.0
25/12:30pm 15.1 11.3 9.9 71 2.7 NW 20 26 11 14 1004.3 1004.3 0.0
25/12:00pm 16.5 13.5 10.8 69 3.1 NW 17 24 9 13 1004.6 1004.6 0.0
25/11:30am 16.2 13.2 10.7 70 2.9 NNW 17 26 9 14 1005.1 1005.1 0.0
25/11:00am 14.7 12.4 10.5 76 2.2 WNW 13 19 7 10 1005.6 1005.6 0.0
25/10:30am 14.7 12.2 9.7 72 2.6 NW 13 17 7 9 1005.7 1005.7 0.0
25/10:00am 14.1 10.9 9.9 76 2.2 WNW 17 20 9 11 1006.3 1006.3 0.0
25/09:30am 13.7 12.7 11.0 84 1.4 NW 7 11 4 6 1006.5 1006.5 0.0
25/09:00am 13.2 11.7 10.6 84 1.4 WNW 9 13 5 7 1006.7 1006.7 1.4
25/08:30am 13.2 10.9 10.4 83 1.5 WNW 13 17 7 9 1007.0 1007.0 1.4
25/08:00am 13.0 10.7 10.4 84 1.4 WNW 13 17 7 9 1006.9 1006.9 1.4
25/07:30am 12.9 10.6 10.6 86 1.2 WNW 13 17 7 9 1006.9 1006.9 1.4
25/07:00am 12.3 10.0 10.4 88 1.0 WNW 13 17 7 9 1007.1 1007.1 1.4
25/06:30am 12.9 10.4 11.0 88 1.0 WNW 15 19 8 10 1007.1 1007.1 1.4
25/06:00am 12.6 11.8 11.8 95 0.4 NW 7 9 4 5 1007.1 1007.1 1.4
25/05:58am 12.6 12.0 11.8 95 0.4 NW 6 9 3 5 1007.1 1007.1 1.4
25/05:43am 12.5 11.9 11.7 95 0.4 N 6 11 3 6 1007.1 1007.1 1.4
25/05:40am 12.5 11.9 11.7 95 0.4 NNW 6 11 3 6 1007.1 1007.1 1.4
25/05:30am 12.5 11.9 11.7 95 0.4 NW 6 7 3 4 1007.2 1007.2 1.4
25/05:01am 12.3 11.6 11.5 95 0.4 N 6 7 3 4 1007.4 1007.4 1.4
25/05:00am 12.3 11.6 11.5 95 0.4 N 6 9 3 5 1007.4 1007.4 1.4
25/04:39am 12.3 11.4 11.5 95 0.4 N 7 9 4 5 1007.7 1007.7 0.6
25/04:30am 12.2 11.3 11.4 95 0.4 NNE 7 9 4 5 1007.7 1007.7 0.0
25/04:08am 12.1 11.4 11.3 95 0.4 NNW 6 7 3 4 1007.8 1007.8 0.0
25/04:00am 12.0 11.2 11.2 95 0.4 WNW 6 7 3 4 1007.8 1007.8 0.0
25/03:30am 11.7 10.8 10.8 94 0.5 N 6 7 3 4 1008.0 1008.0 0.0
25/03:00am 11.9 11.1 11.0 94 0.5 NE 6 7 3 4 1008.5 1008.5 0.0
25/02:30am 11.6 11.0 10.5 93 0.6 NNE 4 9 2 5 1008.8 1008.8 0.0
25/02:00am 11.9 10.9 11.0 94 0.5 NNE 7 9 4 5 1009.4 1009.4 0.0
25/01:30am 11.8 10.9 10.7 93 0.6 N 6 9 3 5 1010.0 1010.0 0.0
25/01:00am 12.4 11.5 11.3 93 0.6 NNE 7 9 4 5 1010.3 1010.3 0.0
25/12:30am 12.5 11.8 11.4 93 0.6 NNE 6 7 3 4 1010.8 1010.8 0.0
25/12:00am 12.8 12.2 11.7 93 0.6 NNE 6 7 3 4 1011.3 1011.3 0.0
 
Date/Time
EST
Temp
°C
App
Temp
°C
Dew
Point
°C
Rel
Hum
%
Delta-T
°C
Wind Press
QNH
hPa
Press
MSL
hPa
Rain since
9am
mm
Dir  Spd
km/h
Gust
km/h
Spd
kts
Gust
kts
24/11:30pm 12.9 12.3 11.8 93 0.6 N 6 7 3 4 1011.8 1011.8 0.0
24/11:07pm 13.0 12.5 11.9 93 0.6 NNE 6 9 3 5 1012.1 1012.1 0.0
24/11:00pm 13.0 12.5 11.9 93 0.6 NNE 6 7 3 4 1012.2 1012.2 0.0
24/10:50pm 13.0 12.5 11.9 93 0.6 N 6 9 3 5 1012.3 1012.3 0.0
24/10:30pm 13.0 11.9 11.9 93 0.6 NNE 9 11 5 6 1012.6 1012.6 0.0
24/10:00pm 13.1 12.0 12.0 93 0.6 N 9 13 5 7 1012.9 1012.9 0.0
24/09:30pm 13.3 12.2 12.0 92 0.7 NNE 9 13 5 7 1013.1 1013.1 0.0
24/09:00pm 13.5 13.0 12.1 91 0.8 NE 6 7 3 4 1013.2 1013.2 0.0
24/08:30pm 13.5 13.0 12.1 91 0.8 NW 6 9 3 5 1013.6 1013.6 0.0
24/08:00pm 13.8 13.3 12.5 92 0.7 NNW 7 9 4 5 1013.8 1013.8 0.0
24/07:30pm 13.7 13.0 11.9 89 1.0 N 7 9 4 5 1013.9 1013.9 0.0
24/07:08pm 14.2 13.6 12.2 88 1.1 N 7 9 4 5 1014.0 1014.0 0.0
24/07:00pm 14.2 13.2 12.2 88 1.1 N 9 11 5 6 1014.1 1014.1 0.0
24/06:58pm 14.2 13.2 12.2 88 1.1 NNW 9 11 5 6 1014.2 1014.2 0.0
24/06:30pm 14.5 12.8 12.4 87 1.1 WNW 13 17 7 9 1014.2 1014.2 0.0
24/06:00pm 14.6 13.3 12.6 88 1.1 NW 11 13 6 7 1014.3 1014.4 0.0
24/05:30pm 14.8 13.5 12.5 86 1.3 NW 11 15 6 8 1014.4 1014.5 0.0
24/05:26pm 14.8 13.6 12.7 87 1.2 NW 11 15 6 8 1014.4 1014.5 0.0
24/05:02pm 15.1 14.0 13.0 87 1.2 NW 11 17 6 9 1014.3 1014.4 0.0
24/05:00pm 15.1 14.0 13.0 87 1.2 WNW 11 17 6 9 1014.3 1014.4 0.0
24/04:30pm 15.3 13.4 13.0 86 1.3 WNW 15 20 8 11 1014.6 1014.7 0.0
24/04:08pm 15.3 13.1 13.2 87 1.2 WNW 17 22 9 12 1014.9 1015.0 0.0
24/04:00pm 15.4 13.2 13.2 87 1.2 WNW 17 22 9 12 1014.9 1015.0 0.0
24/03:43pm 15.6 14.3 13.6 88 1.1 NW 13 17 7 9 1014.9 1015.0 0.0
24/03:30pm 15.8 14.5 13.6 87 1.2 WNW 13 15 7 8 1015.0 1015.1 0.0
24/03:03pm 16.3 15.5 14.1 87 1.2 WNW 11 13 6 7 1015.0 1015.1 0.0
24/03:00pm 16.2 15.4 13.9 86 1.3 WNW 11 15 6 8 1015.0 1015.1 0.0
24/02:31pm 16.4 15.2 14.1 86 1.3 WNW 13 17 7 9 1015.2 1015.3 0.0
24/02:30pm 16.5 15.4 14.3 87 1.3 WNW 13 17 7 9 1015.2 1015.3 0.0
24/02:00pm 16.8 15.7 14.4 86 1.4 WNW 13 17 7 9 1015.5 1015.6 0.0
24/01:30pm 16.5 16.1 14.0 85 1.4 NW 9 13 5 7 1015.8 1015.8 0.0
24/01:00pm 16.5 15.0 14.3 87 1.3 NW 15 20 8 11 1016.5 1016.5 0.0
24/12:45pm 16.3 15.1 14.0 86 1.3 NW 13 15 7 8 1016.7 1016.7 0.0
24/12:30pm 16.2 14.8 14.4 89 1.0 NW 15 17 8 9 1017.0 1017.0 0.0
24/12:00pm 16.2 15.2 14.6 90 0.9 WNW 13 15 7 8 1017.5 1017.5 0.0
24/11:30am 16.0 15.0 14.7 92 0.7 WNW 13 17 7 9 1018.0 1018.0 0.0
24/11:00am 16.0 15.0 14.5 91 0.9 NW 13 15 7 8 1018.2 1018.2 0.0
24/10:30am 16.1 15.1 14.5 90 0.9 NNW 13 17 7 9 1018.4 1018.4 0.0
24/10:00am 16.0 16.3 14.9 93 0.6 NNW 7 11 4 6 1018.8 1018.8 0.0
24/09:30am 15.3 15.3 14.3 94 0.6 NNE 7 11 4 6 1019.0 1019.0 0.0
24/09:00am 14.9 15.0 13.9 94 0.6 ENE 6 11 3 6 1019.1 1019.1 13.4
24/08:30am 14.7 14.8 13.9 95 0.4 ENE 6 7 3 4 1019.3 1019.3 13.4
24/08:00am 14.3 14.1 13.7 96 0.3 ENE 7 9 4 5 1019.3 1019.3 13.4
24/07:30am 14.2 14.1 13.4 95 0.4 E 6 9 3 5 1019.3 1019.3 13.2
24/07:29am 14.2 14.1 13.4 95 0.4 E 6 7 3 4 1019.3 1019.3 13.2
24/07:00am 14.2 13.9 13.4 95 0.4 NNE 7 9 4 5 1019.6 1019.6 13.2
24/06:30am 14.3 15.4 13.5 95 0.4 CALM 0 0 0 0 1020.0 1020.0 12.0
24/06:14am 14.3 15.4 13.5 95 0.4 CALM 0 0 0 0 1020.0 1020.0 11.4
24/06:00am 14.4 15.5 13.4 94 0.6 CALM 0 0 0 0 1020.1 1020.1 11.4
24/05:59am 14.4 15.5 13.4 94 0.6 CALM 0 0 0 0 1020.1 1020.1 11.4
24/05:30am 14.5 15.7 13.7 95 0.4 CALM 0 0 0 0 1020.2 1020.2 11.4
24/05:00am 14.5 15.7 13.7 95 0.4 CALM 0 0 0 0 1020.3 1020.3 11.0
24/04:30am 14.5 15.7 13.7 95 0.4 CALM 0 0 0 0 1020.3 1020.3 9.6
24/04:00am 14.4 15.5 13.6 95 0.4 CALM 0 0 0 0 1020.7 1020.7 5.4
24/03:45am 14.4 14.8 13.6 95 0.4 NNE 4 6 2 3 1020.7 1020.7 3.6
24/03:30am 14.4 14.2 13.6 95 0.4 NNE 7 9 4 5 1020.8 1020.8 2.8
24/03:15am 14.4 14.2 13.6 95 0.4 NNE 7 9 4 5 1021.0 1021.0 1.6
24/03:00am 14.4 14.4 13.6 95 0.4 N 6 7 3 4 1021.1 1021.1 1.2
24/02:42am 14.4 14.3 13.4 94 0.6 N 6 7 3 4 1021.3 1021.3 0.4
24/02:36am 14.3 14.2 13.3 94 0.6 NNE 6 7 3 4 1021.3 1021.3 0.4
24/02:30am 14.3 14.2 13.3 94 0.6 NNE 6 7 3 4 1021.4 1021.4 0.2
24/02:00am 14.0 15.0 13.1 94 0.5 CALM 0 0 0 0 1021.5 1021.5 0.2
24/01:30am 14.1 13.9 13.1 94 0.6 NE 6 7 3 4 1021.6 1021.6 0.2
24/01:00am 13.6 14.4 12.5 93 0.6 CALM 0 0 0 0 1022.0 1022.0 0.2
24/12:30am 13.8 14.0 12.9 94 0.5 ENE 4 7 2 4 1022.2 1022.2 0.2
24/12:00am 13.7 13.8 12.6 93 0.6 ESE 4 7 2 4 1022.3 1022.3 0.2
 
Date/Time
EST
Temp
°C
App
Temp
°C
Dew
Point
°C
Rel
Hum
%
Delta-T
°C
Wind Press
QNH
hPa
Press
MSL
hPa
Rain since
9am
mm
Dir  Spd
km/h
Gust
km/h
Spd
kts
Gust
kts
23/11:30pm 13.3 14.0 12.2 93 0.6 CALM 0 0 0 0 1022.6 1022.6 0.2
23/11:00pm 12.9 13.4 11.5 91 0.7 CALM 0 0 0 0 1022.7 1022.7 0.2
23/10:30pm 13.6 13.1 12.2 91 0.8 NNE 6 7 3 4 1023.0 1023.0 0.2
23/10:00pm 13.7 13.2 12.1 90 0.9 NNE 6 9 3 5 1023.3 1023.3 0.2
23/09:30pm 14.3 14.1 13.0 92 0.7 NNE 6 7 3 4 1023.3 1023.3 0.2
23/09:00pm 14.1 13.6 12.8 92 0.7 NNE 7 9 4 5 1023.3 1023.3 0.2
23/08:30pm 13.8 12.9 12.7 93 0.6 NNE 9 13 5 7 1023.3 1023.3 0.2
23/08:00pm 13.5 13.1 12.4 93 0.6 NNE 6 11 3 6 1023.3 1023.3 0.2
23/07:30pm 13.4 13.7 12.1 92 0.7 NNW 2 7 1 4 1023.4 1023.4 0.2
23/07:00pm 13.3 13.8 11.5 89 1.0 CALM 0 0 0 0 1023.2 1023.2 0.2
23/06:30pm 14.3 13.8 12.7 90 0.9 NNW 7 9 4 5 1023.0 1023.0 0.2
23/06:00pm 14.7 14.2 12.7 88 1.1 NW 7 9 4 5 1022.6 1022.6 0.2
23/05:30pm 15.7 15.3 13.0 84 1.5 NW 7 9 4 5 1022.7 1022.7 0.2
23/05:00pm 16.4 15.6 12.9 80 1.9 NNW 9 11 5 6 1022.6 1022.6 0.2
23/04:30pm 17.5 18.4 13.0 75 2.5 CALM 0 0 0 0 1022.8 1022.8 0.2
23/04:00pm 18.6 19.5 13.0 70 3.1 CALM 0 0 0 0 1022.7 1022.7 0.2
23/03:30pm 17.9 17.4 12.8 72 2.9 SSE 7 9 4 5 1022.6 1022.6 0.2
23/03:00pm 19.2 18.8 12.9 67 3.5 SSE 7 11 4 6 1022.7 1022.7 0.2
23/02:30pm 18.0 16.6 12.2 69 3.2 SSW 11 15 6 8 1022.9 1022.9 0.2
23/02:00pm 17.6 16.3 12.5 72 2.8 S 11 15 6 8 1023.1 1023.1 0.2
23/01:30pm 17.9 16.7 12.8 72 2.9 S 11 17 6 9 1023.3 1023.3 0.0
23/01:00pm 18.1 16.6 13.0 72 2.9 SSW 13 17 7 9 1023.5 1023.5 0.0
23/12:30pm 17.4 16.2 12.7 74 2.6 S 11 15 6 8 1023.6 1023.6 0.0
23/12:00pm 16.7 14.6 12.3 75 2.4 SE 15 20 8 11 1024.0 1024.0 0.0
23/11:30am 15.8 13.3 12.2 79 2.0 SE 17 22 9 12 1024.5 1024.5 0.0
23/11:00am 15.3 12.7 11.9 80 1.8 SSE 17 20 9 11 1024.9 1024.9 0.0
23/10:30am 15.4 13.1 11.8 79 1.9 SSE 15 20 8 11 1024.9 1024.9 0.0
23/10:00am 14.8 11.6 11.2 79 1.9 SSE 19 24 10 13 1024.9 1024.9 0.0
23/09:30am 14.7 10.6 11.5 81 1.7 SSE 24 30 13 16 1025.0 1025.0 0.0
23/09:00am 14.4 11.1 11.6 83 1.5 SE 20 28 11 15 1025.1 1025.1 0.0
23/08:48am 14.4 11.1 11.7 84 1.5 SSE 20 26 11 14 1025.0 1025.0 0.0
23/08:30am 13.8 11.0 11.3 85 1.3 SSE 17 22 9 12 1025.1 1025.1 0.0
23/08:00am 13.9 11.5 11.4 85 1.3 S 15 22 8 12 1024.9 1024.9 0.0
23/07:52am 14.0 11.4 11.9 87 1.1 SSE 17 22 9 12 1025.0 1025.0 0.0
23/07:30am 13.3 10.9 11.4 88 1.0 SE 15 20 8 11 1024.8 1024.8 0.0
23/07:21am 13.3 10.1 11.4 88 1.0 SE 19 26 10 14 1024.6 1024.6 0.0
23/07:00am 13.4 10.0 11.3 87 1.1 SSE 20 28 11 15 1024.5 1024.5 0.0
23/06:30am 13.6 9.5 11.3 86 1.2 SSE 24 33 13 18 1024.5 1024.5 0.0
23/06:00am 13.7 10.3 11.4 86 1.2 SSE 20 30 11 16 1024.3 1024.3 0.0
23/05:30am 13.9 10.6 11.6 86 1.2 SSE 20 28 11 15 1024.1 1024.1 0.0
23/05:00am 14.0 11.0 11.9 87 1.1 SSE 19 26 10 14 1024.1 1024.1 0.0
23/04:30am 14.0 10.8 12.0 88 1.1 SE 20 28 11 15 1023.6 1023.6 0.0
23/04:00am 14.2 11.7 12.2 88 1.1 SSE 17 24 9 13 1023.5 1023.5 0.0
23/03:30am 14.3 11.3 12.5 89 1.0 SE 20 28 11 15 1023.5 1023.5 0.0
23/03:00am 14.4 12.7 12.6 89 1.0 SSE 13 19 7 10 1023.9 1023.9 0.0
23/02:30am 14.6 12.6 12.6 88 1.1 S 15 19 8 10 1024.1 1024.1 0.0
23/02:00am 14.8 12.8 12.8 88 1.1 SSE 15 20 8 11 1024.0 1024.0 0.0
23/01:30am 14.9 13.0 13.1 89 1.0 SSE 15 24 8 13 1024.0 1024.0 0.0
23/01:00am 14.9 12.1 13.3 90 0.9 SE 20 24 11 13 1023.8 1023.8 0.0
23/12:30am 14.9 12.7 13.3 90 0.9 SSE 17 20 9 11 1023.7 1023.7 0.0
23/12:00am 15.0 13.2 13.2 89 1.0 SSE 15 20 8 11 1023.8 1023.8 0.0
 
Date/Time
EST
Temp
°C
App
Temp
°C
Dew
Point
°C
Rel
Hum
%
Delta-T
°C
Wind Press
QNH
hPa
Press
MSL
hPa
Rain since
9am
mm
Dir  Spd
km/h
Gust
km/h
Spd
kts
Gust
kts
22/11:30pm 14.9 13.0 13.1 89 1.0 S 15 19 8 10 1023.9 1023.9 0.0
22/11:00pm 15.0 13.6 13.5 91 0.8 SSE 13 17 7 9 1024.1 1024.1 0.0
22/10:30pm 15.0 13.2 13.4 90 0.9 SE 15 19 8 10 1024.0 1024.0 0.0
22/10:00pm 15.3 13.9 13.5 89 1.0 SSE 13 20 7 11 1024.0 1024.0 0.0
22/09:30pm 15.4 14.2 13.9 91 0.8 SSE 13 19 7 10 1023.8 1023.8 0.0
22/09:00pm 15.4 13.9 14.1 92 0.7 SE 15 19 8 10 1023.7 1023.7 0.0
22/08:40pm 15.6 13.7 14.3 92 0.7 SE 17 20 9 11 1023.6 1023.6 0.0
22/08:30pm 15.5 14.0 14.2 92 0.7 SE 15 20 8 11 1023.5 1023.5 0.0
22/08:00pm 15.6 13.3 14.1 91 0.8 SSE 19 26 10 14 1023.2 1023.2 0.0
22/07:30pm 15.7 13.8 14.1 90 0.9 SSE 17 24 9 13 1023.0 1023.0 0.0
22/07:00pm 15.8 14.6 14.0 89 1.0 SSE 13 17 7 9 1022.9 1022.9 0.0
22/06:30pm 15.9 15.1 13.9 88 1.1 SSE 11 17 6 9 1022.7 1022.7 0.0
22/06:05pm 16.1 14.1 13.8 86 1.3 S 17 22 9 12 1022.5 1022.5 0.0
22/06:00pm 16.1 14.1 13.9 87 1.2 S 17 22 9 12 1022.5 1022.5 0.0
22/05:37pm 16.1 14.8 13.8 86 1.3 SSE 13 19 7 10 1022.5 1022.5 0.0
22/05:30pm 16.2 15.4 13.9 86 1.3 SSE 11 15 6 8 1022.5 1022.5 0.0
22/05:00pm 16.4 14.5 14.1 86 1.3 SSE 17 22 9 12 1022.0 1022.0 0.0

Other Formats:

Comma delimited format used in spreadsheet applications
http://www.bom.gov.au/fwo/IDT60801/IDT60801.94956.axf

JavaScript Object Notation format (JSON) in row-major order
http://www.bom.gov.au/fwo/IDT60801/IDT60801.94956.json